• Join FlightAware (Why Join?)
  • Login
  • US Flag GB Flag 
17:08 EDT


 

Airport Tracker/Info


-or-


 

Live Flight TrackerFlight Track Log ✈ AAL963 ✈ 20-Apr-2013 ✈ KDFW - SBGR / GRU

Flight Track Log - Related Links

Times and Time Zones

All times are in EDT time to prevent confusion due to time zone crossing. See the AAL963 flight status page for this flight to view local times or setup timezone preferences in your user account.

Time Position Orientation Groundspeed Altitude Reporting Facility
EDT Latitude Longitude Course Direction KTS MPH feet Rate Location/Type
21:15 32.8360 -97.0620 197° South 197 227 2,400  Level FlightAware
21:15 32.8070 -97.0710 195° South 227 261 2,900 1,200 Climbing FlightAware
21:16 32.7870 -97.0750 190° South 234 269 3,400 1,620 Climbing FlightAware
21:16 32.7640 -97.0670 164° South 242 278 4,000 1,920 Climbing FlightAware
21:17 32.7330 -97.0520 158° South 247 284 5,000 1,980 Climbing FlightAware
21:17 32.7180 -97.0440 156° South 250 288 5,500 1,980 Climbing FlightAware
21:17 32.6850 -97.0270 157° South 254 292 6,500 1,800 Climbing FlightAware
21:18 32.6590 -97.0130 156° South 261 300 7,200 1,500 Climbing FlightAware
21:18 32.6280 -96.9970 157° South 273 314 7,900 1,740 Climbing FlightAware
21:19 32.5940 -96.9790 156° South 279 321 8,800 1,740 Climbing FlightAware
21:19 32.5570 -96.9590 156° South 294 338 9,500 1,440 Climbing FlightAware
21:20 32.5050 -96.9320 156° South 307 353 10,500 1,260 Climbing FlightAware
21:21 32.4450 -96.9000 156° South 343 395 11,300 1,080 Climbing FlightAware
21:21 32.3800 -96.8660 156° South 375 432 12,100 1,680 Climbing FlightAware
21:22 32.3200 -96.8340 156° South 379 436 13,600 2,160 Climbing FlightAware
21:23 32.2420 -96.7990 159° South 387 445 15,200 2,040 Climbing FlightAware
21:23 32.1720 -96.7730 163° South 399 459 16,500 1,920 Climbing FlightAware
21:24 32.0925 -96.7423 162° South 410 472 17,900 1,920 Climbing FlightAware ADS-B
21:25 32.0370 -96.7213 162° South 415 478 18,900 2,040 Climbing FlightAware ADS-B
21:25 31.9798 -96.6995 162° South 420 483 20,000 1,920 Climbing FlightAware ADS-B
21:26 31.9233 -96.6781 162° South 421 484 20,900 1,620 Climbing FlightAware ADS-B
21:26 31.8658 -96.6563 162° South 432 497 21,700 1,560 Climbing FlightAware ADS-B
21:27 31.8077 -96.6323 161° South 441 507 22,500 1,740 Climbing FlightAware ADS-B
21:27 31.7489 -96.6077 160° South 443 510 23,500 1,620 Climbing FlightAware ADS-B
21:28 31.6896 -96.5834 161° South 448 516 24,200 1,440 Climbing FlightAware ADS-B
21:28 31.6266 -96.5577 161° South 454 522 25,000 1,320 Climbing FlightAware ADS-B
21:29 31.5660 -96.5331 161° South 461 531 25,600 1,080 Climbing FlightAware ADS-B
21:29 31.5030 -96.5076 161° South 470 541 26,100 1,020 Climbing FlightAware ADS-B
21:30 31.4396 -96.4839 162° South 474 545 26,700 1,080 Climbing FlightAware ADS-B
21:30 31.3757 -96.4605 163° South 481 554 27,200 1,080 Climbing FlightAware ADS-B
21:31 31.3096 -96.4361 162° South 485 558 27,800 1,200 Climbing FlightAware ADS-B
21:31 31.2434 -96.4113 162° South 486 559 28,500 1,260 Climbing FlightAware ADS-B
21:31 31.2205 -96.4026 162° South 488 562 28,700 1,260 Climbing FlightAware ADS-B
21:32 31.2025 -96.3939 158° South 497 572 28,900 1,380 Climbing FlightAware ADS-B
21:32 31.1859 -96.3836 152° Southeast 504 580 29,100 1,380 Climbing FlightAware ADS-B
21:32 31.1752 -96.3757 148° Southeast 509 586 29,200 840 Climbing FlightAware ADS-B
21:32 31.1592 -96.3618 143° Southeast 519 597 29,300 900 Climbing FlightAware ADS-B
21:32 31.1403 -96.3404 136° Southeast 531 611 29,500 900 Climbing FlightAware ADS-B
21:32 31.1256 -96.3190 129° Southeast 539 620 29,600 600 Climbing FlightAware ADS-B
21:33 31.0808 -96.2472 126° Southeast 548 631 29,900 780 Climbing FlightAware ADS-B
21:33 31.0355 -96.1727 125° Southeast 553 636 30,400 840 Climbing FlightAware ADS-B
21:34 30.9910 -96.0993 125° Southeast 557 641 30,800 780 Climbing FlightAware ADS-B
21:34 30.9454 -96.0248 126° Southeast 559 643 31,200 960 Climbing FlightAware ADS-B
21:35 30.9000 -95.9510 126° Southeast 559 643 31,800 1,200 Climbing FlightAware ADS-B
21:35 30.8710 -95.9066 127° Southeast 556 640 32,200 1,080 Climbing FlightAware ADS-B
21:36 30.8217 -95.8388 130° Southeast 553 636 32,700 960 Climbing FlightAware ADS-B
21:36 30.7680 -95.7742 134° Southeast 548 631 33,200 960 Climbing FlightAware ADS-B
21:37 30.7128 -95.7127 136° Southeast 543 625 33,700 960 Climbing FlightAware ADS-B
21:37 30.6574 -95.6516 136° Southeast 541 623 34,200 840 Climbing FlightAware ADS-B
21:38 30.5994 -95.5876 136° Southeast 542 624 34,600 540 Climbing FlightAware ADS-B
21:38 30.5446 -95.5271 136° Southeast 546 628 34,800 360 Climbing FlightAware ADS-B
21:39 30.4866 -95.4628 136° Southeast 548 631 35,000 180 Climbing FlightAware ADS-B
21:39 30.4312 -95.4013 136° Southeast 547 629 35,000  Level FlightAware ADS-B
21:40 30.3765 -95.3409 136° Southeast 545 627 35,000  Level FlightAware ADS-B
21:40 30.3213 -95.2799 136° Southeast 545 627 35,000  Level FlightAware ADS-B
21:41 30.2660 -95.2189 136° Southeast 545 627 35,000  Level FlightAware ADS-B
21:41 30.2120 -95.1600 137° Southeast 544 626 35,000  Level FlightAware
21:41 30.2093 -95.1565 132° Southeast 545 627 35,000  Level FlightAware ADS-B
21:42 30.1539 -95.0958 137° Southeast 544 626 35,000  Level FlightAware ADS-B
21:42 30.0985 -95.0351 137° Southeast 544 626 35,000  Level FlightAware ADS-B
21:43 30.0432 -94.9746 137° Southeast 544 626 35,000  Level FlightAware ADS-B
21:43 29.9881 -94.9144 137° Southeast 543 625 35,000  Level FlightAware ADS-B
21:44 29.9327 -94.8541 137° Southeast 543 625 35,000  Level FlightAware ADS-B
21:44 29.8781 -94.7946 137° Southeast 544 626 35,000  Level FlightAware ADS-B
21:45 29.8229 -94.7348 137° Southeast 545 627 35,000  Level FlightAware ADS-B
21:45 29.7673 -94.6745 137° Southeast 545 627 35,000  Level FlightAware ADS-B
21:46 29.7099 -94.6123 137° Southeast 547 629 35,000  Level FlightAware ADS-B
21:46 29.6538 -94.5517 137° Southeast 548 631 35,000  Level FlightAware ADS-B
21:47 29.5976 -94.4910 137° Southeast 549 632 35,000  Level FlightAware ADS-B
21:47 29.5413 -94.4303 137° Southeast 550 633 35,000  Level FlightAware ADS-B
21:48 29.4853 -94.3701 137° Southeast 550 633 35,000  Level FlightAware ADS-B
21:48 29.4297 -94.3104 137° Southeast 552 635 35,000  Level FlightAware ADS-B
21:49 29.3732 -94.2494 137° Southeast 552 635 35,000  Level FlightAware ADS-B
21:49 29.3170 -94.1888 137° Southeast 553 636 35,000  Level FlightAware ADS-B
21:50 29.2606 -94.1280 137° Southeast 553 636 35,000  Level FlightAware ADS-B
21:50 29.2044 -94.0676 137° Southeast 555 639 35,000  Level FlightAware ADS-B
21:51 29.1477 -94.0068 137° Southeast 555 639 35,000  Level FlightAware ADS-B
21:52 29.0772 -93.9308 137° Southeast 554 638 35,000 -60 Level Houston Center
21:53 28.9536 -93.7994 137° Southeast 552 635 34,900  Descending Houston Center
21:54 28.8294 -93.6644 136° Southeast 566 651 35,000  Climbing Houston Center
21:55 28.7153 -93.5464 138° Southeast 558 642 35,000 -60 Level Houston Center
21:56 28.6156 -93.4389 137° Southeast 555 639 34,900  Descending Houston Center
21:57 28.4892 -93.3061 137° Southeast 556 640 35,000  Climbing Houston Center
21:58 28.3886 -93.2006 137° Southeast 557 641 35,000 -60 Level Houston Center
21:59 28.2528 -93.0583 137° Southeast 555 639 34,900  Descending Houston Center
22:05 27.5575 -92.3394 137° Southeast 558 642 35,000  Climbing FlightAware ADS-B
22:06 27.4539 -92.2331 137° Southeast 556 640 34,900 -60 Descending Houston Center
22:07 27.3394 -92.1172 138° Southeast 554 638 34,900  Level Houston Center
22:08 27.2242 -91.9994 138° Southeast 558 642 35,000  Climbing Houston Center
22:10 27.0542 -91.8431 144° Southeast  Level FlightAware Approximate
22:17 26.2760 -91.2258 145° Southeast  Level FlightAware Approximate
22:18 26.1642 -91.1390 145° Southeast  Level FlightAware Approximate
22:19 26.0523 -91.0523 145° Southeast  Level FlightAware Approximate
22:20 25.9404 -90.9658 145° Southeast  Level FlightAware Approximate
22:21 25.8284 -90.8795 145° Southeast  Level FlightAware Approximate
22:22 25.7171 -90.7921 145° Southeast  Level FlightAware Approximate
22:23 25.6058 -90.7050 145° Southeast  Level FlightAware Approximate
22:24 25.4944 -90.6180 145° Southeast  Level FlightAware Approximate
22:25 25.3829 -90.5311 145° Southeast  Level FlightAware Approximate
22:26 25.2714 -90.4444 145° Southeast  Level FlightAware Approximate
22:27 25.1599 -90.3579 145° Southeast  Level FlightAware Approximate
22:28 25.0483 -90.2715 145° Southeast  Level FlightAware Approximate
22:29 24.9366 -90.1853 145° Southeast  Level FlightAware Approximate
22:30 24.8249 -90.0992 145° Southeast  Level FlightAware Approximate
22:31 24.7130 -90.0132 145° Southeast  Level FlightAware Approximate
22:32 24.6010 -89.9273 145° Southeast  Level FlightAware Approximate
22:33 24.4900 -89.8400 138° Southeast  Level FlightAware Approximate
22:34 24.3903 -89.7375 137° Southeast  Level FlightAware Approximate
22:35 24.2907 -89.6351 137° Southeast  Level FlightAware Approximate
22:36 24.1910 -89.5328 137° Southeast  Level FlightAware Approximate
22:37 24.0912 -89.4307 137° Southeast  Level FlightAware Approximate
22:38 23.9913 -89.3288 137° Southeast  Level FlightAware Approximate
22:39 23.8914 -89.2270 137° Southeast  Level FlightAware Approximate
22:40 23.7914 -89.1253 137° Southeast  Level FlightAware Approximate
22:41 23.6914 -89.0239 137° Southeast  Level FlightAware Approximate
22:42 23.5913 -88.9225 137° Southeast  Level FlightAware Approximate
22:43 23.4911 -88.8214 137° Southeast  Level FlightAware Approximate
22:44 23.3908 -88.7203 137° Southeast  Level FlightAware Approximate
22:45 23.2905 -88.6195 137° Southeast  Level FlightAware Approximate
22:46 23.1901 -88.5188 137° Southeast  Level FlightAware Approximate
22:47 23.0897 -88.4182 137° Southeast  Level FlightAware Approximate
22:48 22.9892 -88.3178 137° Southeast  Level FlightAware Approximate
22:49 22.8886 -88.2175 137° Southeast  Level FlightAware Approximate
22:50 22.7880 -88.1174 137° Southeast  Level FlightAware Approximate
22:51 22.6873 -88.0175 138° Southeast  Level FlightAware Approximate
22:52 22.5865 -87.9176 138° Southeast  Level FlightAware Approximate
22:53 22.4857 -87.8180 138° Southeast  Level FlightAware Approximate
22:54 22.3848 -87.7184 138° Southeast  Level FlightAware Approximate
22:55 22.2839 -87.6191 138° Southeast  Level FlightAware Approximate
22:56 22.1829 -87.5198 138° Southeast  Level FlightAware Approximate
22:57 22.0818 -87.4207 138° Southeast  Level FlightAware Approximate
22:58 21.9807 -87.3218 138° Southeast  Level FlightAware Approximate
22:59 21.8795 -87.2230 138° Southeast  Level FlightAware Approximate
23:00 21.7783 -87.1243 138° Southeast  Level FlightAware Approximate
23:01 21.6770 -87.0257 138° Southeast  Level FlightAware Approximate
23:02 21.5759 -86.9270 138° Southeast  Level FlightAware Approximate
23:03 21.4750 -86.8282 138° Southeast  Level FlightAware Approximate
23:04 21.3740 -86.7295 138° Southeast  Level FlightAware Approximate
23:05 21.2729 -86.6310 138° Southeast  Level FlightAware Approximate
23:06 21.1718 -86.5326 138° Southeast  Level FlightAware Approximate
23:07 21.0706 -86.4343 138° Southeast  Level FlightAware Approximate
23:08 20.9694 -86.3361 138° Southeast  Level FlightAware Approximate
23:09 20.8681 -86.2381 138° Southeast  Level FlightAware Approximate
23:10 20.7668 -86.1403 138° Southeast  Level FlightAware Approximate
23:11 20.6654 -86.0425 138° Southeast  Level FlightAware Approximate
23:12 20.5639 -85.9449 138° Southeast  Level FlightAware Approximate
23:13 20.4624 -85.8474 138° Southeast  Level FlightAware Approximate
23:14 20.3609 -85.7500 138° Southeast  Level FlightAware Approximate
23:15 20.2593 -85.6528 138° Southeast  Level FlightAware Approximate
23:16 20.1576 -85.5557 138° Southeast  Level FlightAware Approximate
23:17 20.0553 -85.4594 139° Southeast  Level FlightAware Approximate
23:18 19.9526 -85.3637 139° Southeast  Level FlightAware Approximate
23:19 19.8498 -85.2682 139° Southeast  Level FlightAware Approximate
23:20 19.7469 -85.1728 139° Southeast  Level FlightAware Approximate
23:21 19.6440 -85.0775 139° Southeast  Level FlightAware Approximate
23:22 19.5411 -84.9823 139° Southeast  Level FlightAware Approximate
23:23 19.4381 -84.8872 139° Southeast  Level FlightAware Approximate
23:24 19.3351 -84.7922 139° Southeast  Level FlightAware Approximate
23:25 19.2320 -84.6974 139° Southeast  Level FlightAware Approximate
23:26 19.1288 -84.6027 139° Southeast  Level FlightAware Approximate
23:27 19.0256 -84.5081 139° Southeast  Level FlightAware Approximate
23:28 18.9224 -84.4136 139° Southeast  Level FlightAware Approximate
23:29 18.8191 -84.3193 139° Southeast  Level FlightAware Approximate
23:30 18.7158 -84.2251 139° Southeast  Level FlightAware Approximate
23:31 18.6126 -84.1307 139° Southeast  Level FlightAware Approximate
23:32 18.5101 -84.0355 139° Southeast  Level FlightAware Approximate
23:33 18.4076 -83.9404 139° Southeast  Level FlightAware Approximate
23:34 18.3051 -83.8455 139° Southeast  Level FlightAware Approximate
23:35 18.2025 -83.7506 139° Southeast  Level FlightAware Approximate
23:36 18.0998 -83.6559 139° Southeast  Level FlightAware Approximate
23:37 17.9971 -83.5612 139° Southeast  Level FlightAware Approximate
23:38 17.8944 -83.4667 139° Southeast  Level FlightAware Approximate
23:39 17.7916 -83.3723 139° Southeast  Level FlightAware Approximate
23:40 17.6888 -83.2780 139° Southeast  Level FlightAware Approximate
23:41 17.5859 -83.1838 139° Southeast  Level FlightAware Approximate
23:42 17.4830 -83.0898 139° Southeast  Level FlightAware Approximate
23:43 17.3800 -82.9958 139° Southeast  Level FlightAware Approximate
23:44 17.2770 -82.9019 139° Southeast  Level FlightAware Approximate
23:45 17.1740 -82.8081 139° Southeast  Level FlightAware Approximate
23:46 17.0709 -82.7145 139° Southeast  Level FlightAware Approximate
23:47 16.9678 -82.6209 139° Southeast  Level FlightAware Approximate
23:48 16.8646 -82.5275 139° Southeast  Level FlightAware Approximate
23:49 16.7614 -82.4341 139° Southeast  Level FlightAware Approximate
23:50 16.6581 -82.3409 139° Southeast  Level FlightAware Approximate
23:51 16.5548 -82.2477 139° Southeast  Level FlightAware Approximate
23:52 16.4513 -82.1549 140° Southeast  Level FlightAware Approximate
23:53 16.3471 -82.0629 140° Southeast  Level FlightAware Approximate
23:54 16.2430 -81.9709 140° Southeast  Level FlightAware Approximate
23:55 16.1388 -81.8791 140° Southeast  Level FlightAware Approximate
23:56 16.0345 -81.7873 140° Southeast  Level FlightAware Approximate
23:57 15.9301 -81.6954 140° Southeast  Level FlightAware Approximate
23:58 15.8256 -81.6037 140° Southeast  Level FlightAware Approximate
23:59 15.7211 -81.5120 140° Southeast  Level FlightAware Approximate
00:00 15.6165 -81.4205 140° Southeast  Level FlightAware Approximate
00:01 15.5119 -81.3290 140° Southeast  Level FlightAware Approximate
00:02 15.4072 -81.2377 140° Southeast  Level FlightAware Approximate
00:03 15.3025 -81.1464 140° Southeast  Level FlightAware Approximate
00:04 15.1978 -81.0552 140° Southeast  Level FlightAware Approximate
00:05 15.0930 -80.9641 140° Southeast  Level FlightAware Approximate
00:06 14.9882 -80.8730 140° Southeast  Level FlightAware Approximate
00:07 14.8838 -80.7816 140° Southeast  Level FlightAware Approximate
00:08 14.7793 -80.6903 140° Southeast  Level FlightAware Approximate
00:09 14.6748 -80.5991 140° Southeast  Level FlightAware Approximate
00:10 14.5703 -80.5079 140° Southeast  Level FlightAware Approximate
00:11 14.4657 -80.4168 140° Southeast  Level FlightAware Approximate
00:12 14.3611 -80.3259 140° Southeast  Level FlightAware Approximate
00:13 14.2564 -80.2350 140° Southeast  Level FlightAware Approximate
00:14 14.1519 -80.1443 140° Southeast  Level FlightAware Approximate
00:15 14.0474 -80.0538 140° Southeast  Level FlightAware Approximate
00:16 13.9429 -79.9633 140° Southeast  Level FlightAware Approximate
00:17 13.8383 -79.8729 140° Southeast  Level FlightAware Approximate
00:18 13.7336 -79.7826 140° Southeast  Level FlightAware Approximate
00:19 13.6290 -79.6924 140° Southeast  Level FlightAware Approximate
00:20 13.5243 -79.6022 140° Southeast  Level FlightAware Approximate
00:21 13.4196 -79.5122 140° Southeast  Level FlightAware Approximate
00:22 13.3148 -79.4222 140° Southeast  Level FlightAware Approximate
00:23 13.2100 -79.3323 140° Southeast  Level FlightAware Approximate
00:24 13.1052 -79.2424 140° Southeast  Level FlightAware Approximate
00:25 13.0003 -79.1526 140° Southeast  Level FlightAware Approximate
00:26 12.8955 -79.0630 140° Southeast  Level FlightAware Approximate
00:27 12.7906 -78.9734 140° Southeast  Level FlightAware Approximate
00:28 12.6856 -78.8838 140° Southeast  Level FlightAware Approximate
00:29 12.5806 -78.7943 140° Southeast  Level FlightAware Approximate
00:30 12.4756 -78.7050 140° Southeast  Level FlightAware Approximate
00:31 12.3706 -78.6156 140° Southeast  Level FlightAware Approximate
00:32 12.2655 -78.5264 140° Southeast  Level FlightAware Approximate
00:33 12.1605 -78.4372 140° Southeast  Level FlightAware Approximate
00:33 10.9000 -77.3620 140° Southeast 506 582 35,000  Level FlightAware
00:33 10.8330 -77.2990 137° Southeast 506 582 35,000  Level FlightAware
00:34 10.7620 -77.2340 138° Southeast 507 583 35,000  Level FlightAware
00:35 10.6920 -77.1680 137° Southeast 507 583 35,000  Level FlightAware
00:37 10.5115 -76.9984 137° Southeast  Level FlightAware Approximate
00:37 10.5000 -76.9890 137° Southeast 508 585 35,000  Level FlightAware
00:37 10.4310 -76.9250 138° Southeast 508 585 35,000  Level FlightAware
00:38 10.3620 -76.8610 138° Southeast 508 585 35,000  Level FlightAware
00:39 10.2800 -76.7840 137° Southeast 507 583 35,000  Level FlightAware
00:39 10.2020 -76.7130 138° Southeast 507 583 35,000  Level FlightAware
00:40 10.1440 -76.6590 137° Southeast 507 583 35,000  Level FlightAware
00:41 10.0630 -76.5840 138° Southeast 506 582 35,000  Level FlightAware
00:42 9.9850 -76.5110 137° Southeast 505 581 35,000  Level FlightAware
00:42 9.9250 -76.4550 137° Southeast 504 580 35,000  Level FlightAware
00:43 9.8370 -76.3740 138° Southeast 503 579 35,000  Level FlightAware
00:44 9.7780 -76.3200 138° Southeast 503 579 35,000  Level FlightAware
00:44 9.7010 -76.2480 137° Southeast 503 579 35,000  Level FlightAware
00:45 9.6210 -76.1740 138° Southeast 503 579 35,000  Level FlightAware
00:46 9.5480 -76.1080 138° Southeast 501 577 35,000  Level FlightAware
00:47 9.4790 -76.0420 137° Southeast 501 577 35,000  Level FlightAware
00:47 9.4070 -75.9740 137° Southeast 501 577 35,000  Level FlightAware
00:48 9.3490 -75.9200 137° Southeast 501 577 35,000  Level FlightAware
00:49 9.2920 -75.8650 136° Southeast 501 577 35,000  Level FlightAware
00:49 9.2340 -75.8110 137° Southeast 501 577 35,000  Level FlightAware
00:50 9.1770 -75.7560 136° Southeast 501 577 35,000  Level FlightAware
00:51 9.1040 -75.6880 137° Southeast 501 577 35,000  Level FlightAware
00:52 9.0470 -75.6340 137° Southeast 501 577 35,000  Level FlightAware
00:52 8.9890 -75.5790 137° Southeast 501 577 35,000  Level FlightAware
00:53 8.9320 -75.5250 137° Southeast 501 577 35,000  Level FlightAware
00:54 8.8740 -75.4710 137° Southeast 501 577 35,000  Level FlightAware
00:54 8.8020 -75.4030 137° Southeast 501 577 35,000  Level FlightAware
00:55 8.7440 -75.3480 137° Southeast 501 577 35,000  Level FlightAware
00:56 8.6870 -75.2940 137° Southeast 501 577 35,000  Level FlightAware
00:58 8.5017 -75.1308 139° Southeast  Level FlightAware Approximate
00:59 8.3987 -75.0401 139° Southeast  Level FlightAware Approximate
01:00 8.2957 -74.9496 139° Southeast  Level FlightAware Approximate
01:01 8.1927 -74.8590 139° Southeast  Level FlightAware Approximate
01:02 8.0897 -74.7686 139° Southeast  Level FlightAware Approximate
01:03 7.9866 -74.6781 139° Southeast  Level FlightAware Approximate
01:04 7.8835 -74.5878 139° Southeast  Level FlightAware Approximate
01:05 7.7804 -74.4973 138° Southeast  Level FlightAware Approximate
01:06 7.6795 -74.4050 138° Southeast  Level FlightAware Approximate
01:07 7.5785 -74.3126 138° Southeast  Level FlightAware Approximate
01:08 7.4775 -74.2203 138° Southeast  Level FlightAware Approximate
01:09 7.3765 -74.1281 138° Southeast  Level FlightAware Approximate
01:10 7.2754 -74.0359 138° Southeast  Level FlightAware Approximate
01:11 7.1744 -73.9437 138° Southeast  Level FlightAware Approximate
01:12 7.0733 -73.8516 138° Southeast  Level FlightAware Approximate
01:13 6.9640 -73.7713 152° Southeast  Level FlightAware Approximate
01:14 6.8440 -73.7061 152° Southeast  Level FlightAware Approximate
01:15 6.7241 -73.6410 152° Southeast  Level FlightAware Approximate
01:16 6.6042 -73.5758 152° Southeast  Level FlightAware Approximate
01:17 6.4842 -73.5107 152° Southeast  Level FlightAware Approximate
01:18 6.3643 -73.4456 152° Southeast  Level FlightAware Approximate
01:19 6.2443 -73.3806 152° Southeast  Level FlightAware Approximate
01:20 6.1243 -73.3156 152° Southeast  Level FlightAware Approximate
01:21 6.0044 -73.2506 152° Southeast  Level FlightAware Approximate
01:22 5.8844 -73.1856 152° Southeast  Level FlightAware Approximate
01:23 5.7644 -73.1207 152° Southeast  Level FlightAware Approximate
01:24 5.6444 -73.0558 152° Southeast  Level FlightAware Approximate
01:25 5.5244 -72.9909 152° Southeast  Level FlightAware Approximate
01:26 5.4043 -72.9260 152° Southeast  Level FlightAware Approximate
01:27 5.2843 -72.8612 152° Southeast  Level FlightAware Approximate
01:28 5.1643 -72.7964 152° Southeast  Level FlightAware Approximate
01:29 5.0443 -72.7316 152° Southeast  Level FlightAware Approximate
01:30 4.9242 -72.6669 152° Southeast  Level FlightAware Approximate
01:31 4.8042 -72.6021 152° Southeast  Level FlightAware Approximate
01:32 4.6841 -72.5374 152° Southeast  Level FlightAware Approximate
01:33 4.5641 -72.4727 152° Southeast  Level FlightAware Approximate
01:34 4.4440 -72.4081 152° Southeast  Level FlightAware Approximate
01:35 4.3239 -72.3435 152° Southeast  Level FlightAware Approximate
01:36 4.2038 -72.2788 152° Southeast  Level FlightAware Approximate
01:37 4.0837 -72.2142 152° Southeast  Level FlightAware Approximate
01:38 3.9637 -72.1496 152° Southeast  Level FlightAware Approximate
01:39 3.8498 -72.0744 145° Southeast  Level FlightAware Approximate
01:40 3.7382 -71.9956 145° Southeast  Level FlightAware Approximate
01:41 3.6266 -71.9169 145° Southeast  Level FlightAware Approximate
01:42 3.5149 -71.8382 145° Southeast  Level FlightAware Approximate
01:43 3.4033 -71.7594 145° Southeast  Level FlightAware Approximate
01:44 3.2916 -71.6807 145° Southeast  Level FlightAware Approximate
01:45 3.1799 -71.6021 145° Southeast  Level FlightAware Approximate
01:46 3.0683 -71.5234 145° Southeast  Level FlightAware Approximate
01:47 2.9566 -71.4448 145° Southeast  Level FlightAware Approximate
01:48 2.8449 -71.3661 145° Southeast  Level FlightAware Approximate
01:49 2.7332 -71.2875 145° Southeast  Level FlightAware Approximate
01:50 2.6215 -71.2089 145° Southeast  Level FlightAware Approximate
01:51 2.5098 -71.1303 145° Southeast  Level FlightAware Approximate
01:52 2.3981 -71.0518 145° Southeast  Level FlightAware Approximate
01:53 2.2864 -70.9732 145° Southeast  Level FlightAware Approximate
01:54 2.1747 -70.8947 145° Southeast  Level FlightAware Approximate
01:55 2.0630 -70.8161 145° Southeast  Level FlightAware Approximate
01:56 1.9513 -70.7376 145° Southeast  Level FlightAware Approximate
01:57 1.8395 -70.6591 145° Southeast  Level FlightAware Approximate
01:58 1.7278 -70.5806 145° Southeast  Level FlightAware Approximate
01:59 1.6161 -70.5021 145° Southeast  Level FlightAware Approximate
02:00 1.5043 -70.4237 145° Southeast  Level FlightAware Approximate
02:01 1.3926 -70.3452 145° Southeast  Level FlightAware Approximate
02:02 1.2809 -70.2667 145° Southeast  Level FlightAware Approximate
02:03 1.1747 -70.1812 138° Southeast  Level FlightAware Approximate
02:04 1.0729 -70.0905 138° Southeast  Level FlightAware Approximate
02:05 0.9711 -69.9999 138° Southeast  Level FlightAware Approximate
02:06 0.8693 -69.9093 138° Southeast  Level FlightAware Approximate
02:07 0.7675 -69.8187 138° Southeast  Level FlightAware Approximate
02:08 0.6657 -69.7281 138° Southeast  Level FlightAware Approximate
02:09 0.5639 -69.6375 138° Southeast  Level FlightAware Approximate
02:10 0.4623 -69.5471 138° Southeast  Level FlightAware Approximate
02:11 0.3606 -69.4567 138° Southeast  Level FlightAware Approximate
02:12 0.2590 -69.3662 138° Southeast  Level FlightAware Approximate
02:13 0.1574 -69.2758 138° Southeast  Level FlightAware Approximate
02:14 0.0557 -69.1854 138° Southeast  Level FlightAware Approximate
02:15 -0.0459 -69.0950 138° Southeast  Level FlightAware Approximate
02:16 -0.1475 -69.0046 138° Southeast  Level FlightAware Approximate
02:17 -0.2491 -68.9141 138° Southeast  Level FlightAware Approximate
02:18 -0.3508 -68.8237 138° Southeast  Level FlightAware Approximate
02:19 -0.4524 -68.7333 138° Southeast  Level FlightAware Approximate
02:20 -0.5540 -68.6429 138° Southeast  Level FlightAware Approximate
02:21 -0.6557 -68.5525 138° Southeast  Level FlightAware Approximate
02:22 -0.7573 -68.4620 138° Southeast  Level FlightAware Approximate
02:23 -0.8589 -68.3716 138° Southeast  Level FlightAware Approximate
02:24 -0.9605 -68.2812 138° Southeast  Level FlightAware Approximate
02:25 -1.0621 -68.1907 138° Southeast  Level FlightAware Approximate
02:26 -1.1638 -68.1003 138° Southeast  Level FlightAware Approximate
02:27 -1.2654 -68.0098 138° Southeast  Level FlightAware Approximate
02:28 -1.3670 -67.9193 138° Southeast  Level FlightAware Approximate
02:29 -1.4686 -67.8288 138° Southeast  Level FlightAware Approximate
02:30 -1.5702 -67.7384 138° Southeast  Level FlightAware Approximate
02:31 -1.6718 -67.6479 138° Southeast  Level FlightAware Approximate
02:32 -1.7734 -67.5574 138° Southeast  Level FlightAware Approximate
02:33 -1.8750 -67.4669 138° Southeast  Level FlightAware Approximate
02:34 -1.9765 -67.3764 138° Southeast  Level FlightAware Approximate
02:35 -2.0781 -67.2858 138° Southeast  Level FlightAware Approximate
02:36 -2.1797 -67.1953 138° Southeast  Level FlightAware Approximate
02:37 -2.2812 -67.1047 138° Southeast  Level FlightAware Approximate
02:38 -2.3828 -67.0142 138° Southeast  Level FlightAware Approximate
02:39 -2.4844 -66.9236 138° Southeast  Level FlightAware Approximate
02:40 -2.5859 -66.8330 138° Southeast  Level FlightAware Approximate
02:41 -2.6875 -66.7424 138° Southeast  Level FlightAware Approximate
02:42 -2.7890 -66.6517 138° Southeast  Level FlightAware Approximate
02:43 -2.8905 -66.5611 138° Southeast  Level FlightAware Approximate
02:44 -2.9920 -66.4704 138° Southeast  Level FlightAware Approximate
02:45 -3.0936 -66.3798 138° Southeast  Level FlightAware Approximate
02:46 -3.1951 -66.2891 138° Southeast  Level FlightAware Approximate
02:47 -3.2966 -66.1984 138° Southeast  Level FlightAware Approximate
02:48 -3.3981 -66.1076 138° Southeast  Level FlightAware Approximate
02:49 -3.4996 -66.0169 138° Southeast  Level FlightAware Approximate
02:50 -3.6010 -65.9261 138° Southeast  Level FlightAware Approximate
02:51 -3.7025 -65.8353 138° Southeast  Level FlightAware Approximate
02:52 -3.8040 -65.7445 138° Southeast  Level FlightAware Approximate
02:53 -3.9054 -65.6537 138° Southeast  Level FlightAware Approximate
02:54 -4.0068 -65.5628 138° Southeast  Level FlightAware Approximate
02:55 -4.1083 -65.4720 138° Southeast  Level FlightAware Approximate
02:56 -4.2097 -65.3811 138° Southeast  Level FlightAware Approximate
02:57 -4.3111 -65.2902 138° Southeast  Level FlightAware Approximate
02:58 -4.4125 -65.1992 138° Southeast  Level FlightAware Approximate
02:59 -4.5139 -65.1082 138° Southeast  Level FlightAware Approximate
03:00 -4.6152 -65.0173 138° Southeast  Level FlightAware Approximate
03:01 -4.7166 -64.9262 138° Southeast  Level FlightAware Approximate
03:02 -4.8179 -64.8352 138° Southeast  Level FlightAware Approximate
03:03 -4.9193 -64.7441 138° Southeast  Level FlightAware Approximate
03:04 -5.0206 -64.6530 138° Southeast  Level FlightAware Approximate
03:05 -5.1219 -64.5619 138° Southeast  Level FlightAware Approximate
03:06 -5.2232 -64.4707 138° Southeast  Level FlightAware Approximate
03:07 -5.3245 -64.3795 138° Southeast  Level FlightAware Approximate
03:08 -5.4258 -64.2883 138° Southeast  Level FlightAware Approximate
03:09 -5.5270 -64.1971 138° Southeast  Level FlightAware Approximate
03:10 -5.6283 -64.1058 138° Southeast  Level FlightAware Approximate
03:11 -5.7295 -64.0145 138° Southeast  Level FlightAware Approximate
03:12 -5.8305 -63.9233 138° Southeast  Level FlightAware Approximate
03:13 -5.9316 -63.8321 138° Southeast  Level FlightAware Approximate
03:14 -6.0326 -63.7408 138° Southeast  Level FlightAware Approximate
03:15 -6.1336 -63.6496 138° Southeast  Level FlightAware Approximate
03:16 -6.2345 -63.5583 138° Southeast  Level FlightAware Approximate
03:17 -6.3355 -63.4669 138° Southeast  Level FlightAware Approximate
03:18 -6.4366 -63.3754 138° Southeast  Level FlightAware Approximate
03:19 -6.5377 -63.2838 138° Southeast  Level FlightAware Approximate
03:20 -6.6388 -63.1921 138° Southeast  Level FlightAware Approximate
03:21 -6.7399 -63.1005 138° Southeast  Level FlightAware Approximate
03:22 -6.8409 -63.0088 138° Southeast  Level FlightAware Approximate
03:23 -6.9420 -62.9170 138° Southeast  Level FlightAware Approximate
03:24 -7.0430 -62.8253 138° Southeast  Level FlightAware Approximate
03:25 -7.1440 -62.7334 138° Southeast  Level FlightAware Approximate
03:26 -7.2450 -62.6416 138° Southeast  Level FlightAware Approximate
03:27 -7.3460 -62.5497 138° Southeast  Level FlightAware Approximate
03:28 -7.4469 -62.4577 138° Southeast  Level FlightAware Approximate
03:29 -7.5478 -62.3658 138° Southeast  Level FlightAware Approximate
03:30 -7.6487 -62.2737 138° Southeast  Level FlightAware Approximate
03:31 -7.7496 -62.1817 138° Southeast  Level FlightAware Approximate
03:32 -7.8505 -62.0896 138° Southeast  Level FlightAware Approximate
03:33 -7.9514 -61.9974 138° Southeast  Level FlightAware Approximate
03:34 -8.0522 -61.9052 138° Southeast  Level FlightAware Approximate
03:35 -8.1530 -61.8129 138° Southeast  Level FlightAware Approximate
03:36 -8.2538 -61.7206 138° Southeast  Level FlightAware Approximate
03:37 -8.3546 -61.6283 138° Southeast  Level FlightAware Approximate
03:38 -8.4553 -61.5359 138° Southeast  Level FlightAware Approximate
03:39 -8.5560 -61.4435 138° Southeast  Level FlightAware Approximate
03:40 -8.6567 -61.3510 138° Southeast  Level FlightAware Approximate
03:41 -8.7574 -61.2584 138° Southeast  Level FlightAware Approximate
03:42 -8.8581 -61.1659 138° Southeast  Level FlightAware Approximate
03:43 -8.9587 -61.0732 138° Southeast  Level FlightAware Approximate
03:44 -9.0593 -60.9805 138° Southeast  Level FlightAware Approximate
03:45 -9.1599 -60.8878 138° Southeast  Level FlightAware Approximate
03:46 -9.2605 -60.7950 138° Southeast  Level FlightAware Approximate
03:47 -9.3610 -60.7021 138° Southeast  Level FlightAware Approximate
03:48 -9.4615 -60.6092 138° Southeast  Level FlightAware Approximate
03:49 -9.5620 -60.5163 138° Southeast  Level FlightAware Approximate
03:50 -9.6625 -60.4233 138° Southeast  Level FlightAware Approximate
03:51 -9.7629 -60.3302 138° Southeast  Level FlightAware Approximate
03:52 -9.8634 -60.2371 138° Southeast  Level FlightAware Approximate
03:53 -9.9637 -60.1439 138° Southeast  Level FlightAware Approximate
03:54 -10.0641 -60.0507 138° Southeast  Level FlightAware Approximate
03:55 -10.1645 -59.9574 138° Southeast  Level FlightAware Approximate
03:56 -10.2648 -59.8640 138° Southeast  Level FlightAware Approximate
03:57 -10.3651 -59.7706 138° Southeast  Level FlightAware Approximate
03:58 -10.4653 -59.6771 137° Southeast  Level FlightAware Approximate
03:59 -10.5655 -59.5836 137° Southeast  Level FlightAware Approximate
04:00 -10.6658 -59.4900 137° Southeast  Level FlightAware Approximate
04:01 -10.7659 -59.3963 137° Southeast  Level FlightAware Approximate
04:02 -10.8661 -59.3026 137° Southeast  Level FlightAware Approximate
04:03 -10.9662 -59.2088 137° Southeast  Level FlightAware Approximate
04:04 -11.0663 -59.1150 137° Southeast  Level FlightAware Approximate
04:05 -11.1664 -59.0211 137° Southeast  Level FlightAware Approximate
04:06 -11.2664 -58.9271 137° Southeast  Level FlightAware Approximate
04:07 -11.3664 -58.8331 137° Southeast  Level FlightAware Approximate
04:08 -11.4664 -58.7390 137° Southeast  Level FlightAware Approximate
04:09 -11.5663 -58.6448 137° Southeast  Level FlightAware Approximate
04:10 -11.6662 -58.5506 137° Southeast  Level FlightAware Approximate
04:11 -11.7661 -58.4563 137° Southeast  Level FlightAware Approximate
04:12 -11.8660 -58.3619 137° Southeast  Level FlightAware Approximate
04:13 -11.9660 -58.2673 137° Southeast  Level FlightAware Approximate
04:14 -12.0659 -58.1726 137° Southeast  Level FlightAware Approximate
04:15 -12.1659 -58.0778 137° Southeast  Level FlightAware Approximate
04:16 -12.2658 -57.9830 137° Southeast  Level FlightAware Approximate
04:17 -12.3657 -57.8881 137° Southeast  Level FlightAware Approximate
04:18 -12.4655 -57.7931 137° Southeast  Level FlightAware Approximate
04:19 -12.5653 -57.6981 137° Southeast  Level FlightAware Approximate
04:20 -12.6651 -57.6029 137° Southeast  Level FlightAware Approximate
04:21 -12.7648 -57.5078 137° Southeast  Level FlightAware Approximate
04:22 -12.8645 -57.4125 137° Southeast  Level FlightAware Approximate
04:23 -12.9642 -57.3171 137° Southeast  Level FlightAware Approximate
04:24 -13.0639 -57.2217 137° Southeast  Level FlightAware Approximate
04:25 -13.1635 -57.1262 137° Southeast  Level FlightAware Approximate
04:26 -13.2630 -57.0306 137° Southeast  Level FlightAware Approximate
04:27 -13.3626 -56.9350 137° Southeast  Level FlightAware Approximate
04:28 -13.4621 -56.8392 137° Southeast  Level FlightAware Approximate
04:29 -13.5615 -56.7434 137° Southeast  Level FlightAware Approximate
04:30 -13.6609 -56.6475 137° Southeast  Level FlightAware Approximate
04:31 -13.7603 -56.5516 137° Southeast  Level FlightAware Approximate
04:32 -13.8597 -56.4555 137° Southeast  Level FlightAware Approximate
04:33 -13.9590 -56.3594 137° Southeast  Level FlightAware Approximate
04:34 -14.0583 -56.2632 137° Southeast  Level FlightAware Approximate
04:35 -14.1575 -56.1669 137° Southeast  Level FlightAware Approximate
04:36 -14.2567 -56.0705 137° Southeast  Level FlightAware Approximate
04:37 -14.3559 -55.9740 137° Southeast  Level FlightAware Approximate
04:38 -14.4550 -55.8774 137° Southeast  Level FlightAware Approximate
04:39 -14.5541 -55.7808 137° Southeast  Level FlightAware Approximate
04:40 -14.6531 -55.6841 137° Southeast  Level FlightAware Approximate
04:41 -14.7521 -55.5872 137° Southeast  Level FlightAware Approximate
04:42 -14.8511 -55.4903 137° Southeast  Level FlightAware Approximate
04:43 -14.9500 -55.3933 137° Southeast  Level FlightAware Approximate
04:44 -15.0489 -55.2962 137° Southeast  Level FlightAware Approximate
04:45 -15.1477 -55.1991 137° Southeast  Level FlightAware Approximate
04:46 -15.2465 -55.1018 136° Southeast  Level FlightAware Approximate
04:47 -15.3453 -55.0044 136° Southeast  Level FlightAware Approximate
04:48 -15.4440 -54.9070 136° Southeast  Level FlightAware Approximate
04:49 -15.5426 -54.8094 136° Southeast  Level FlightAware Approximate
04:50 -15.6413 -54.7118 136° Southeast  Level FlightAware Approximate
04:51 -15.7398 -54.6141 136° Southeast  Level FlightAware Approximate
04:52 -15.8384 -54.5162 136° Southeast  Level FlightAware Approximate
04:53 -15.9369 -54.4183 136° Southeast  Level FlightAware Approximate
04:54 -16.0353 -54.3203 136° Southeast  Level FlightAware Approximate
04:55 -16.1339 -54.2220 136° Southeast  Level FlightAware Approximate
04:56 -16.2325 -54.1236 136° Southeast  Level FlightAware Approximate
04:57 -16.3310 -54.0251 136° Southeast  Level FlightAware Approximate
04:58 -16.4294 -53.9265 136° Southeast  Level FlightAware Approximate
04:59 -16.5278 -53.8279 136° Southeast  Level FlightAware Approximate
05:00 -16.6262 -53.7291 136° Southeast  Level FlightAware Approximate
05:01 -16.7245 -53.6302 136° Southeast  Level FlightAware Approximate
05:02 -16.8228 -53.5312 136° Southeast  Level FlightAware Approximate
05:03 -16.9210 -53.4321 136° Southeast  Level FlightAware Approximate
05:04 -17.0191 -53.3329 136° Southeast  Level FlightAware Approximate
05:05 -17.1173 -53.2336 136° Southeast  Level FlightAware Approximate
05:06 -17.2153 -53.1342 136° Southeast  Level FlightAware Approximate
05:07 -17.3134 -53.0347 136° Southeast  Level FlightAware Approximate
05:08 -17.4113 -52.9350 136° Southeast  Level FlightAware Approximate
05:09 -17.5093 -52.8353 136° Southeast  Level FlightAware Approximate
05:10 -17.6071 -52.7355 136° Southeast  Level FlightAware Approximate
05:11 -17.7050 -52.6355 136° Southeast  Level FlightAware Approximate
05:12 -17.8028 -52.5355 136° Southeast  Level FlightAware Approximate
05:13 -17.9005 -52.4353 136° Southeast  Level FlightAware Approximate
05:14 -17.9981 -52.3351 136° Southeast  Level FlightAware Approximate
05:15 -18.0958 -52.2347 136° Southeast  Level FlightAware Approximate
05:16 -18.1933 -52.1342 136° Southeast  Level FlightAware Approximate
05:17 -18.2907 -52.0338 136° Southeast  Level FlightAware Approximate
05:18 -18.3880 -51.9332 136° Southeast  Level FlightAware Approximate
05:19 -18.4852 -51.8326 136° Southeast  Level FlightAware Approximate
05:20 -18.5824 -51.7318 136° Southeast  Level FlightAware Approximate
05:21 -18.6795 -51.6309 135° Southeast  Level FlightAware Approximate
05:22 -18.7766 -51.5299 135° Southeast  Level FlightAware Approximate
05:23 -18.8736 -51.4288 135° Southeast  Level FlightAware Approximate
05:24 -18.9706 -51.3276 135° Southeast  Level FlightAware Approximate
05:25 -19.0675 -51.2262 135° Southeast  Level FlightAware Approximate
05:25 -19.2610 -50.3850 135° Southeast 540 621 37,000  Level FlightAware
05:25 -19.3340 -50.3050 134° Southeast 540 621 37,000  Level FlightAware
05:26 -19.1643 -51.1248 135° Southeast  Level FlightAware Approximate
05:26 -19.4260 -50.2040 134° Southeast 540 621 37,000  Level FlightAware
05:27 -19.4990 -50.1240 134° Southeast 539 620 37,000  Level FlightAware
05:28 -19.5670 -50.0490 134° Southeast 538 619 37,000  Level FlightAware
05:28 -19.6460 -49.9620 134° Southeast 536 617 37,000  Level FlightAware
05:29 -19.7160 -49.8850 134° Southeast 533 613 37,000  Level FlightAware
05:30 -19.7830 -49.8130 135° Southeast 533 613 37,000  Level FlightAware
05:30 -19.8600 -49.7280 134° Southeast 533 613 37,000  Level FlightAware
05:31 -19.9270 -49.6550 134° Southeast 531 611 37,000  Level FlightAware
05:32 -20.0070 -49.5670 134° Southeast 531 611 37,000  Level FlightAware
05:33 -20.0770 -49.4900 134° Southeast 530 610 37,000  Level FlightAware
05:33 -20.1410 -49.4200 134° Southeast 530 610 37,000  Level FlightAware
05:34 -20.2240 -49.3410 138° Southeast 524 603 37,000  Level FlightAware
05:35 -20.2890 -49.2820 140° Southeast 524 603 37,000  Level FlightAware
05:35 -20.3630 -49.2130 139° Southeast 525 604 37,000  Level FlightAware
05:36 -20.4280 -49.1530 139° Southeast 525 604 37,000  Level FlightAware
05:37 -20.4940 -49.0900 138° Southeast 525 604 37,000  Level FlightAware
05:37 -20.5740 -49.0140 138° Southeast 525 604 37,000  Level FlightAware
05:38 -20.6480 -48.9430 138° Southeast 524 603 37,000  Level FlightAware
05:39 -20.7640 -48.8340 139° Southeast 522 601 37,000  Level FlightAware
05:40 -20.8340 -48.7680 139° Southeast 522 601 37,000  Level FlightAware
05:40 -20.9180 -48.6890 139° Southeast 517 595 37,000  Level FlightAware
05:41 -20.9880 -48.6220 138° Southeast 509 586 37,000  Level FlightAware
05:42 -21.0590 -48.5550 139° Southeast 507 583 37,000  Level FlightAware
05:42 -21.1290 -48.4890 139° Southeast 507 583 37,000  Level FlightAware
05:43 -21.2190 -48.4040 139° Southeast 505 581 37,000  Level FlightAware
05:44 -21.2850 -48.3410 138° Southeast 505 581 37,000  Level FlightAware
05:45 -21.3590 -48.2710 139° Southeast 503 579 37,000  Level FlightAware
05:45 -21.4330 -48.2000 138° Southeast 502 578 37,000  Level FlightAware
05:46 -21.5130 -48.1240 139° Southeast 501 577 37,000  Level FlightAware
05:47 -21.5810 -48.0590 138° Southeast 500 575 37,000  Level FlightAware
05:47 -21.6520 -47.9910 138° Southeast 499 574 37,000  Level FlightAware
05:48 -21.7220 -47.9240 138° Southeast 497 572 37,000  Level FlightAware
05:49 -21.7980 -47.8520 139° Southeast 497 572 37,000 -600 Level FlightAware
05:49 -21.8670 -47.7850 138° Southeast 495 570 36,200 -1,920 Descending FlightAware
05:50 -21.9450 -47.7100 138° Southeast 495 570 34,300 -2,520 Descending FlightAware
05:51 -22.0120 -47.6450 138° Southeast 484 557 32,700 -2,340 Descending FlightAware
05:52 -22.0800 -47.5790 138° Southeast 478 550 31,200 -1,680 Descending FlightAware
05:52 -22.1500 -47.5120 138° Southeast 434 499 30,400 -1,080 Descending FlightAware
05:53 -22.2080 -47.4560 138° Southeast 394 453 29,700 -1,200 Descending FlightAware
05:54 -22.2620 -47.4040 138° Southeast 377 434 28,800 -1,860 Descending FlightAware
05:54 -22.3200 -47.3480 138° Southeast 372 428 27,100 -2,340 Descending FlightAware
05:55 -22.3710 -47.2980 138° Southeast 355 409 25,500 -2,280 Descending FlightAware
05:56 -22.4250 -47.2450 138° Southeast 349 402 23,900 -1,860 Descending FlightAware
05:56 -22.4740 -47.1980 138° Southeast 326 375 22,900 -1,740 Descending FlightAware
05:57 -22.5180 -47.1550 138° Southeast 316 364 21,600 -1,860 Descending FlightAware
05:57 -22.5380 -47.1430 151° Southeast 322 371 21,200 -1,200 Descending FlightAware
05:58 -22.5620 -47.1400 173° South 335 386 21,000 -420 Descending FlightAware
05:58 -22.5850 -47.1450 191° South 327 376 21,000  Level FlightAware
05:59 -22.6360 -47.1800 212° Southwest 329 379 21,000  Level FlightAware
05:59 -22.6790 -47.2030 206° Southwest 331 381 21,000  Level FlightAware
05:59 -22.7000 -47.2060 188° South 320 368 21,000 -480 Level FlightAware
06:00 -22.7360 -47.1930 162° South 313 360 20,700 -900 Descending FlightAware
06:00 -22.7520 -47.1770 137° Southeast 319 367 20,400 -1,200 Descending FlightAware
06:01 -22.7840 -47.1230 123° Southeast 317 365 19,600 -1,320 Descending FlightAware
06:01 -22.8210 -47.0620 123° Southeast 314 361 18,600 -1,320 Descending FlightAware
06:02 -22.8520 -47.0100 123° Southeast 306 352 17,800 -1,140 Descending FlightAware
06:03 -22.8800 -46.9740 130° Southeast 299 344 17,300 -1,320 Descending FlightAware
06:03 -22.9270 -46.9510 156° South 266 306 16,300 -1,740 Descending FlightAware
06:04 -22.9750 -46.9300 158° South 261 300 15,000 -2,100 Descending FlightAware
06:05 -23.0270 -46.9090 160° South 257 296 13,400 -2,220 Descending FlightAware
06:05 -23.0710 -46.8900 158° South 258 297 11,900 -1,980 Descending FlightAware
06:06 -23.1220 -46.8690 159° South 248 285 10,600 -1,500 Descending FlightAware
06:07 -23.1650 -46.8500 158° South 242 278 9,800 -1,320 Descending FlightAware
06:07 -23.1820 -46.8430 159° South 240 276 9,400 -1,500 Descending FlightAware
06:07 -23.2140 -46.8300 160° South 240 276 8,700 -1,020 Descending FlightAware
06:08 -23.2400 -46.8190 159° South 243 280 8,500 -660 Descending FlightAware
06:08 -23.2740 -46.8050 159° South 244 281 8,100 -1,020 Descending FlightAware
06:09 -23.3010 -46.7930 158° South 247 284 7,600 -900 Descending FlightAware
06:09 -23.3330 -46.7790 158° South 224 258 7,300 -420 Descending FlightAware
06:10 -23.3480 -46.7730 160° South 223 257 7,300 -300 Level FlightAware
06:10 -23.3720 -46.7610 155° Southeast 211 243 7,100 -780 Descending FlightAware
06:10 -23.3960 -46.7410 143° Southeast 211 243 6,600 -1,020 Descending FlightAware
06:11 -23.4180 -46.7200 139° Southeast 202 232 6,100 -1,020 Descending FlightAware
06:11 -23.4360 -46.7030 139° Southeast 197 227 5,700 -1,080 Descending FlightAware
06:12 -23.4460 -46.6930 137° Southeast 189 217 5,400 -1,020 Descending FlightAware
06:12 -23.4530 -46.6800 120° Southeast 174 200 5,200 -180 Descending FlightAware
06:12 -23.4610 -46.6620 116° Southeast 147 169 5,300 -600 Climbing FlightAware
06:13 -23.4690 -46.6440 116° Southeast 130 150 4,700 -720 Descending FlightAware
06:13 -23.4760 -46.6240 111° Southeast 141 162 4,600 -480 Descending FlightAware
06:14 -23.4720 -46.6080 75° East 132 152 4,300 -480 Descending FlightAware
06:14 -23.4670 -46.5900 73° East 133 153 4,200 -600 Descending FlightAware
06:15 -23.4620 -46.5730 72° East 134 154 3,800 -900 Descending FlightAware
06:15 -23.4590 -46.5630 72° East 131 151 3,600 -720 Descending FlightAware
06:15 -23.4540 -46.5440 74° East 136 157 3,300 -660 Descending FlightAware
06:16 -23.4500 -46.5270 76° East 141 162 3,000 -780 Descending FlightAware
06:16 -23.4440 -46.5070 72° East 139 160 2,600 -840 Descending FlightAware
06:17 -23.4410 -46.4960 73° East 139 160 2,400 -840 Descending FlightAware